Terminal Aerodrome Forecast
Issued by NWS

Home | Current Version | Previous Version | Text Only | Print | Product List | Glossary On
Versions: 1 2 3 4 5 6 7 8 9 10 11 12 13
741
FTUS46 KSGX 172320
TAFPSP
TAF
KPSP 172320Z 1800/1824 09011KT P6SM SKC
     FM180300 33010KT P6SM SKC
     FM180700 VRB04KT P6SM SKC
     FM182100 10010KT P6SM SKC=

USA.gov is the U.S. government's official web portal to all federal, state and local government web resources and services.